createdAt,value
2022-11-27T00:00:21.172Z,50.90
2022-11-27T00:01:42.982Z,50.40
2022-11-27T00:02:44.849Z,45.61
2022-11-27T00:03:47.634Z,43.94
2022-11-27T00:04:49.420Z,47.46
2022-11-27T00:05:55.845Z,47.67
2022-11-27T00:06:57.684Z,49.59
2022-11-27T00:07:59.503Z,50.19
2022-11-27T00:09:11.551Z,49.37
2022-11-27T00:10:13.277Z,47.96
2022-11-27T00:11:23.725Z,47.33
2022-11-27T00:12:25.474Z,45.90
2022-11-27T00:13:27.582Z,45.37
2022-11-27T00:14:29.712Z,47.14
2022-11-27T00:15:31.518Z,48.21
2022-11-27T00:16:33.797Z,44.99
2022-11-27T00:17:35.616Z,49.06
2022-11-27T00:18:37.664Z,50.45
2022-11-27T00:19:39.621Z,47.86
2022-11-27T00:20:41.493Z,46.59
2022-11-27T00:21:43.227Z,46.85
2022-11-27T00:22:44.949Z,48.21
2022-11-27T00:23:46.698Z,46.21
2022-11-27T00:24:48.408Z,46.67
2022-11-27T00:25:53.812Z,49.16
2022-11-27T00:26:55.512Z,49.08
2022-11-27T00:27:57.359Z,47.94
2022-11-27T00:28:59.285Z,47.98
2022-11-27T00:30:01.090Z,46.06
2022-11-27T00:31:06.833Z,45.44
2022-11-27T00:32:08.642Z,49.26
2022-11-27T00:33:10.396Z,47.40
2022-11-27T00:34:12.182Z,52.85
2022-11-27T00:35:14.072Z,55.86
2022-11-27T00:36:16.646Z,49.37
2022-11-27T00:37:18.384Z,47.47
2022-11-27T00:38:20.622Z,49.52
2022-11-27T00:39:22.345Z,49.32
2022-11-27T00:40:24.091Z,48.55
2022-11-27T00:41:29.018Z,51.11
2022-11-27T00:42:30.869Z,48.87
2022-11-27T00:43:43.190Z,49.64
2022-11-27T00:44:46.219Z,50.91
2022-11-27T00:45:51.038Z,48.83
2022-11-27T00:46:52.863Z,51.95
2022-11-27T00:47:54.826Z,52.15
2022-11-27T00:48:57.712Z,50.86
2022-11-27T00:49:59.518Z,52.03
2022-11-27T00:51:08.678Z,49.69
2022-11-27T00:52:10.417Z,55.09
2022-11-27T00:53:12.182Z,52.98
2022-11-27T00:54:13.969Z,51.73
2022-11-27T00:55:15.739Z,50.20
2022-11-27T00:56:21.709Z,48.37
2022-11-27T00:57:23.445Z,48.18
2022-11-27T00:58:26.408Z,46.47
2022-11-27T00:59:28.131Z,49.39
2022-11-27T01:00:29.974Z,45.82
2022-11-27T01:01:36.690Z,46.45
2022-11-27T01:02:38.568Z,47.92
2022-11-27T01:03:40.409Z,44.52
2022-11-27T01:04:46.170Z,43.12
2022-11-27T01:05:47.926Z,47.58
2022-11-27T01:06:49.978Z,47.22
2022-11-27T01:07:51.814Z,45.13
2022-11-27T01:08:54.418Z,42.47
2022-11-27T01:09:56.183Z,40.96
2022-11-27T01:10:58.965Z,44.89
2022-11-27T01:12:00.851Z,46.44
2022-11-27T01:13:02.597Z,45.81
2022-11-27T01:14:13.044Z,46.00
2022-11-27T01:15:14.792Z,45.01
2022-11-27T01:16:20.336Z,42.02
2022-11-27T01:17:22.206Z,44.93
2022-11-27T01:18:23.952Z,45.85
2022-11-27T01:19:26.760Z,44.46
2022-11-27T01:20:28.543Z,43.33
2022-11-27T01:21:34.330Z,40.81
2022-11-27T01:22:36.531Z,43.78
2022-11-27T01:23:38.364Z,42.58
2022-11-27T01:24:40.263Z,40.18
2022-11-27T01:25:42.195Z,41.46
2022-11-27T01:26:45.011Z,39.48
2022-11-27T01:27:46.900Z,40.91
2022-11-27T01:28:52.291Z,40.28
2022-11-27T01:29:54.032Z,42.25
2022-11-27T01:30:56.313Z,44.24
2022-11-27T01:31:58.258Z,44.29
2022-11-27T01:33:00.088Z,43.02
2022-11-27T01:34:06.176Z,42.78
2022-11-27T01:35:08.618Z,42.63
2022-11-27T01:36:13.316Z,40.63
2022-11-27T01:37:15.203Z,42.64
2022-11-27T01:38:17.006Z,44.24
2022-11-27T01:39:21.006Z,42.65
2022-11-27T01:40:23.340Z,40.47
2022-11-27T01:41:27.702Z,40.67
2022-11-27T01:42:29.443Z,42.78
2022-11-27T01:43:46.090Z,42.26
2022-11-27T01:44:51.720Z,43.63
2022-11-27T01:45:53.665Z,44.17
2022-11-27T01:47:07.012Z,43.00
2022-11-27T01:48:13.380Z,44.71
2022-11-27T01:49:38.706Z,42.49
2022-11-27T01:50:40.848Z,44.39
2022-11-27T01:52:01.147Z,45.30
2022-11-27T01:53:13.004Z,46.39
2022-11-27T01:54:17.104Z,44.95
2022-11-27T01:55:25.844Z,43.14
2022-11-27T01:56:30.122Z,47.26
2022-11-27T01:57:45.683Z,45.71
2022-11-27T01:58:49.239Z,44.23
2022-11-27T01:59:54.853Z,41.07
2022-11-27T02:00:56.763Z,42.48
2022-11-27T02:01:58.680Z,44.12
2022-11-27T02:03:00.687Z,42.51
2022-11-27T02:04:02.748Z,42.54
2022-11-27T02:05:05.141Z,44.59
2022-11-27T02:06:07.185Z,45.30
2022-11-27T02:07:09.320Z,43.15
2022-11-27T02:08:14.987Z,45.69
2022-11-27T02:09:16.901Z,44.86
2022-11-27T02:10:19.279Z,45.04
2022-11-27T02:11:33.891Z,42.99
2022-11-27T02:13:01.874Z,45.44
2022-11-27T02:14:18.876Z,44.64
2022-11-27T02:15:34.149Z,44.89
2022-11-27T02:17:00.601Z,43.92
2022-11-27T02:18:12.988Z,44.22
2022-11-27T02:19:52.019Z,42.71
2022-11-27T02:21:10.845Z,44.57
2022-11-27T02:22:49.321Z,46.62
2022-11-27T02:23:59.599Z,44.26
2022-11-27T02:25:13.655Z,43.31
2022-11-27T02:26:49.180Z,45.08
2022-11-27T02:28:03.680Z,42.14
2022-11-27T02:29:12.248Z,42.87
2022-11-27T02:30:14.722Z,43.28
2022-11-27T02:31:25.766Z,42.92
2022-11-27T02:32:39.825Z,38.94
2022-11-27T02:33:50.120Z,42.76
2022-11-27T02:35:02.762Z,42.16
2022-11-27T02:36:14.716Z,44.01
2022-11-27T02:37:28.384Z,43.61
2022-11-27T02:38:38.507Z,42.86
2022-11-27T02:40:06.708Z,42.82
2022-11-27T02:41:18.989Z,44.75
2022-11-27T02:42:22.107Z,43.80
2022-11-27T02:43:33.166Z,43.35
2022-11-27T02:44:44.537Z,44.61
2022-11-27T02:45:52.137Z,43.40
2022-11-27T02:46:55.796Z,42.21
2022-11-27T02:47:59.590Z,44.57
2022-11-27T02:49:11.061Z,43.78
2022-11-27T02:50:20.043Z,42.59
2022-11-27T02:51:35.506Z,44.60
2022-11-27T02:52:38.119Z,43.88
2022-11-27T02:53:50.265Z,44.94
2022-11-27T02:54:57.743Z,45.53
2022-11-27T02:56:05.329Z,44.24
2022-11-27T02:57:10.760Z,46.96
2022-11-27T02:58:20.003Z,45.24
2022-11-27T02:59:26.563Z,44.70
2022-11-27T03:00:30.763Z,50.43
2022-11-27T03:01:39.801Z,47.65
2022-11-27T03:02:50.442Z,45.51
2022-11-27T03:03:58.224Z,48.36
2022-11-27T03:05:05.589Z,47.15
2022-11-27T03:06:14.850Z,44.65
2022-11-27T03:07:26.852Z,43.45
2022-11-27T03:08:34.516Z,46.92
2022-11-27T03:09:42.459Z,45.73
2022-11-27T03:11:05.945Z,45.24
2022-11-27T03:12:19.941Z,46.13
2022-11-27T03:13:38.409Z,45.98
2022-11-27T03:14:43.796Z,45.77
2022-11-27T03:16:17.373Z,46.69
2022-11-27T03:17:52.010Z,46.74
2022-11-27T03:19:17.411Z,48.09
2022-11-27T03:20:37.324Z,47.34
2022-11-27T03:21:43.904Z,46.83
2022-11-27T03:22:45.842Z,44.33
2022-11-27T03:23:47.669Z,45.28
2022-11-27T03:24:51.498Z,47.22
2022-11-27T03:25:55.297Z,45.67
2022-11-27T03:27:02.702Z,45.36
2022-11-27T03:28:10.031Z,43.63
2022-11-27T03:29:21.859Z,44.81
2022-11-27T03:30:23.694Z,44.81
2022-11-27T03:31:26.994Z,46.24
2022-11-27T03:32:30.499Z,48.45
2022-11-27T03:33:32.796Z,46.20
2022-11-27T03:34:35.723Z,43.54
2022-11-27T03:35:37.530Z,42.55
2022-11-27T03:36:39.399Z,44.83
2022-11-27T03:37:41.553Z,42.89
2022-11-27T03:38:45.762Z,43.58
2022-11-27T03:39:48.793Z,44.21
2022-11-27T03:41:09.855Z,43.22
2022-11-27T03:42:39.003Z,43.90
2022-11-27T03:44:07.424Z,46.83
2022-11-27T03:45:38.760Z,47.12
2022-11-27T03:47:01.461Z,45.19
2022-11-27T03:48:23.961Z,42.57
2022-11-27T03:49:46.528Z,43.17
2022-11-27T03:51:01.419Z,44.20
2022-11-27T03:52:33.566Z,43.75
2022-11-27T03:54:01.024Z,42.19
2022-11-27T03:55:31.977Z,42.56
2022-11-27T03:56:39.990Z,43.36
2022-11-27T03:58:09.534Z,41.62
2022-11-27T03:59:23.072Z,40.08
2022-11-27T04:00:25.272Z,40.68
2022-11-27T04:01:29.364Z,42.43
2022-11-27T04:02:44.425Z,41.53
2022-11-27T04:03:46.310Z,43.75
2022-11-27T04:04:48.543Z,42.12
2022-11-27T04:05:50.487Z,42.53
2022-11-27T04:06:52.928Z,42.16
2022-11-27T04:07:57.066Z,39.96
2022-11-27T04:09:00.156Z,43.04
2022-11-27T04:10:01.907Z,44.77
2022-11-27T04:11:04.029Z,42.39
2022-11-27T04:12:05.964Z,40.79
2022-11-27T04:13:08.273Z,40.84
2022-11-27T04:14:10.025Z,40.43
2022-11-27T04:15:12.638Z,42.04
2022-11-27T04:16:14.554Z,42.12
2022-11-27T04:17:16.309Z,42.08
2022-11-27T04:18:18.495Z,42.08
2022-11-27T04:19:20.322Z,42.46
2022-11-27T04:20:22.060Z,42.63
2022-11-27T04:21:23.811Z,45.27
2022-11-27T04:22:25.585Z,45.88
2022-11-27T04:23:27.399Z,42.26
2022-11-27T04:24:31.018Z,41.38
2022-11-27T04:25:33.007Z,41.80
2022-11-27T04:26:34.742Z,41.89
2022-11-27T04:27:36.517Z,39.33
2022-11-27T04:28:38.388Z,40.05
2022-11-27T04:29:40.425Z,42.58
2022-11-27T04:30:42.150Z,43.68
2022-11-27T04:31:43.920Z,45.26
2022-11-27T04:32:45.726Z,43.87
2022-11-27T04:33:47.459Z,41.12
2022-11-27T04:34:49.356Z,42.71
2022-11-27T04:35:51.373Z,42.37
2022-11-27T04:36:53.103Z,42.53
2022-11-27T04:37:58.050Z,40.69
2022-11-27T04:38:59.789Z,39.80
2022-11-27T04:40:01.860Z,39.80
2022-11-27T04:41:03.769Z,41.26
2022-11-27T04:42:05.752Z,41.71
2022-11-27T04:43:07.825Z,39.48
2022-11-27T04:44:11.451Z,39.97
2022-11-27T04:45:14.469Z,38.77
2022-11-27T04:46:16.215Z,37.47
2022-11-27T04:47:18.283Z,37.84
2022-11-27T04:48:20.022Z,37.50
2022-11-27T04:49:21.735Z,38.11
2022-11-27T04:50:23.692Z,35.20
2022-11-27T04:51:25.460Z,37.89
2022-11-27T04:52:27.535Z,38.98
2022-11-27T04:53:29.277Z,39.61
2022-11-27T04:54:31.157Z,37.50
2022-11-27T04:55:33.195Z,36.74
2022-11-27T04:56:34.928Z,39.19
2022-11-27T04:57:36.741Z,39.02
2022-11-27T04:58:38.551Z,35.26
2022-11-27T04:59:40.922Z,35.89
2022-11-27T05:00:42.745Z,36.87
2022-11-27T05:01:44.593Z,37.09
2022-11-27T05:02:46.376Z,35.72
2022-11-27T05:03:48.968Z,35.79
2022-11-27T05:04:50.682Z,34.63
2022-11-27T05:05:56.944Z,34.78
2022-11-27T05:06:58.737Z,33.08
2022-11-27T05:08:00.548Z,33.74
2022-11-27T05:09:02.539Z,34.20
2022-11-27T05:10:06.340Z,37.22
2022-11-27T05:11:13.809Z,36.63
2022-11-27T05:12:15.611Z,37.08
2022-11-27T05:13:17.415Z,35.60
2022-11-27T05:14:20.515Z,34.71
2022-11-27T05:15:22.254Z,33.56
2022-11-27T05:16:24.127Z,31.87
2022-11-27T05:17:26.117Z,31.65
2022-11-27T05:18:27.958Z,32.89
2022-11-27T05:19:31.883Z,33.00
2022-11-27T05:20:33.642Z,34.32
2022-11-27T05:21:35.479Z,34.28
2022-11-27T05:22:37.243Z,33.56
2022-11-27T05:23:38.948Z,33.98
2022-11-27T05:24:41.018Z,34.12
2022-11-27T05:25:42.977Z,32.86
2022-11-27T05:26:44.962Z,32.34
2022-11-27T05:27:46.692Z,33.28
2022-11-27T05:28:48.445Z,31.55
2022-11-27T05:29:50.214Z,32.92
2022-11-27T05:30:51.995Z,33.47
2022-11-27T05:31:53.915Z,30.99
2022-11-27T05:32:55.810Z,32.66
2022-11-27T05:33:57.955Z,31.75
2022-11-27T05:34:59.706Z,31.59
2022-11-27T05:36:01.567Z,30.60
2022-11-27T05:37:03.483Z,31.21
2022-11-27T05:38:05.282Z,30.35
2022-11-27T05:39:08.954Z,32.22
2022-11-27T05:40:10.923Z,32.43
2022-11-27T05:41:12.711Z,31.51
2022-11-27T05:42:14.595Z,31.16
2022-11-27T05:43:16.456Z,60.44
2022-11-27T05:44:23.779Z,40.81
2022-11-27T05:45:25.556Z,44.95
2022-11-27T05:46:27.729Z,129.76
2022-11-27T05:47:30.003Z,132.44
2022-11-27T05:48:31.829Z,88.98
2022-11-27T05:49:33.683Z,59.86
2022-11-27T05:50:35.504Z,101.04
2022-11-27T05:51:37.345Z,87.89
2022-11-27T05:52:39.127Z,76.45
2022-11-27T05:53:41.540Z,48.73
2022-11-27T05:54:43.273Z,42.12
2022-11-27T05:55:44.975Z,51.46
2022-11-27T05:56:47.217Z,150.47
2022-11-27T05:57:49.364Z,95.24
2022-11-27T05:58:51.689Z,44.79
2022-11-27T05:59:53.504Z,40.49
2022-11-27T06:00:55.247Z,59.54
2022-11-27T06:01:57.020Z,58.37
2022-11-27T06:02:59.091Z,46.96
2022-11-27T06:04:01.064Z,40.87
2022-11-27T06:05:02.859Z,87.00
2022-11-27T06:06:09.474Z,70.39
2022-11-27T06:07:11.297Z,63.42
2022-11-27T06:08:13.129Z,59.27
2022-11-27T06:09:14.857Z,56.27
2022-11-27T06:10:16.601Z,62.80
2022-11-27T06:11:21.471Z,56.73
2022-11-27T06:12:23.312Z,41.88
2022-11-27T06:13:25.032Z,44.33
2022-11-27T06:14:26.754Z,36.51
2022-11-27T06:15:28.514Z,34.43
2022-11-27T06:16:30.381Z,32.19
2022-11-27T06:17:32.114Z,49.67
2022-11-27T06:18:34.592Z,44.55
2022-11-27T06:19:36.368Z,40.26
2022-11-27T06:20:43.420Z,48.30
2022-11-27T06:21:46.623Z,50.21
2022-11-27T06:22:48.489Z,44.16
2022-11-27T06:23:55.548Z,45.16
2022-11-27T06:24:57.351Z,91.48
2022-11-27T06:25:59.124Z,110.54
2022-11-27T06:27:00.882Z,91.84
2022-11-27T06:28:02.824Z,57.02
2022-11-27T06:29:05.039Z,63.12
2022-11-27T06:30:07.589Z,42.21
2022-11-27T06:31:17.476Z,35.95
2022-11-27T06:32:19.692Z,33.84
2022-11-27T06:33:21.438Z,34.29
2022-11-27T06:34:23.170Z,35.06
2022-11-27T06:35:25.098Z,36.76
2022-11-27T06:36:30.700Z,36.94
2022-11-27T06:37:32.555Z,37.24
2022-11-27T06:38:37.100Z,37.49
2022-11-27T06:39:39.019Z,35.77
2022-11-27T06:40:40.776Z,35.70
2022-11-27T06:41:43.404Z,36.87
2022-11-27T06:42:45.111Z,38.69
2022-11-27T06:43:47.494Z,39.56
2022-11-27T06:44:49.261Z,60.23
2022-11-27T06:45:59.195Z,46.52
2022-11-27T06:47:01.201Z,46.14
2022-11-27T06:48:02.948Z,54.46
2022-11-27T06:49:05.236Z,48.28
2022-11-27T06:50:07.637Z,42.08
2022-11-27T06:51:13.376Z,41.91
2022-11-27T06:52:15.332Z,41.09
2022-11-27T06:53:17.429Z,48.02
2022-11-27T06:54:19.324Z,48.28
2022-11-27T06:55:21.100Z,44.37
2022-11-27T06:56:25.758Z,40.77
2022-11-27T06:57:27.666Z,39.05
2022-11-27T06:58:31.187Z,42.24
2022-11-27T06:59:33.199Z,48.69
2022-11-27T07:00:34.974Z,53.99
2022-11-27T07:01:36.742Z,61.86
2022-11-27T07:02:38.841Z,45.95
2022-11-27T07:03:41.544Z,62.53
2022-11-27T07:04:43.323Z,76.64
2022-11-27T07:05:45.063Z,139.09
2022-11-27T07:06:46.822Z,106.23
2022-11-27T07:07:48.715Z,93.65
2022-11-27T07:08:50.749Z,96.46
2022-11-27T07:09:52.512Z,62.85
2022-11-27T07:10:54.345Z,57.58
2022-11-27T07:11:56.122Z,58.35
2022-11-27T07:12:57.999Z,44.92
2022-11-27T07:14:04.611Z,42.53
2022-11-27T07:15:07.524Z,41.87
2022-11-27T07:16:11.874Z,39.93
2022-11-27T07:17:13.671Z,42.08
2022-11-27T07:18:15.647Z,39.85
2022-11-27T07:19:17.424Z,44.25
2022-11-27T07:20:19.283Z,54.50
2022-11-27T07:21:21.767Z,61.69
2022-11-27T07:22:23.537Z,61.07
2022-11-27T07:23:25.393Z,65.13
2022-11-27T07:24:27.157Z,57.39
2022-11-27T07:25:28.982Z,48.50
2022-11-27T07:26:31.030Z,47.17
2022-11-27T07:27:32.843Z,44.13
2022-11-27T07:28:35.038Z,40.26
2022-11-27T07:29:36.896Z,39.93
2022-11-27T07:30:38.748Z,44.44
2022-11-27T07:31:40.527Z,48.66
2022-11-27T07:32:42.325Z,47.22
2022-11-27T07:33:44.408Z,46.81
2022-11-27T07:34:46.125Z,48.69
2022-11-27T07:35:47.857Z,51.17
2022-11-27T07:36:49.571Z,51.84
2022-11-27T07:37:51.309Z,47.38
2022-11-27T07:38:53.195Z,46.46
2022-11-27T07:40:02.503Z,43.30
2022-11-27T07:41:06.459Z,46.94
2022-11-27T07:42:37.575Z,44.46
2022-11-27T07:43:31.495Z,53.05
2022-11-27T07:44:33.283Z,54.25
2022-11-27T07:45:35.096Z,50.23
2022-11-27T07:46:36.965Z,47.63
2022-11-27T07:47:39.472Z,54.28
2022-11-27T07:48:41.769Z,43.15
2022-11-27T07:49:43.601Z,41.01
2022-11-27T07:50:45.489Z,40.40
2022-11-27T07:51:47.241Z,39.85
2022-11-27T07:52:48.975Z,40.63
2022-11-27T07:53:51.971Z,45.41
2022-11-27T07:54:54.009Z,55.88
2022-11-27T07:56:00.068Z,74.06
2022-11-27T07:57:02.370Z,56.89
2022-11-27T07:58:04.124Z,48.26
2022-11-27T07:59:05.844Z,46.17
2022-11-27T08:00:08.490Z,45.98
2022-11-27T08:01:15.205Z,49.42
2022-11-27T08:02:17.095Z,51.14
2022-11-27T08:03:18.902Z,67.19
2022-11-27T08:04:21.005Z,56.91
2022-11-27T08:05:22.913Z,52.60
2022-11-27T08:06:27.537Z,54.10
2022-11-27T08:07:30.697Z,51.68
2022-11-27T08:08:33.084Z,49.67
2022-11-27T08:09:34.834Z,46.54
2022-11-27T08:10:38.863Z,46.58
2022-11-27T08:11:40.604Z,47.46
2022-11-27T08:12:42.656Z,45.26
2022-11-27T08:13:44.474Z,46.08
2022-11-27T08:14:46.231Z,49.61
2022-11-27T08:15:48.241Z,56.56
2022-11-27T08:16:50.090Z,51.45
2022-11-27T08:17:51.889Z,46.24
2022-11-27T08:18:54.597Z,45.86
2022-11-27T08:19:56.368Z,45.83
2022-11-27T08:21:00.379Z,47.62
2022-11-27T08:22:02.137Z,45.40
2022-11-27T08:23:04.635Z,51.82
2022-11-27T08:24:06.731Z,74.85
2022-11-27T08:25:09.099Z,60.34
2022-11-27T08:26:12.594Z,48.80
2022-11-27T08:27:16.284Z,46.55
2022-11-27T08:28:18.013Z,48.96
2022-11-27T08:29:19.891Z,49.92
2022-11-27T08:30:23.706Z,47.16
2022-11-27T08:31:25.771Z,45.57
2022-11-27T08:32:27.585Z,49.24
2022-11-27T08:33:30.796Z,51.35
2022-11-27T08:34:32.858Z,58.79
2022-11-27T08:35:34.678Z,48.83
2022-11-27T08:36:36.653Z,45.45
2022-11-27T08:37:38.419Z,51.27
2022-11-27T08:38:40.271Z,52.28
2022-11-27T08:39:42.041Z,47.71
2022-11-27T08:40:44.372Z,49.72
2022-11-27T08:41:46.087Z,48.62
2022-11-27T08:42:47.836Z,47.01
2022-11-27T08:43:49.867Z,46.74
2022-11-27T08:44:51.791Z,46.07
2022-11-27T08:45:56.045Z,46.47
2022-11-27T08:46:57.803Z,47.37
2022-11-27T08:47:59.617Z,49.95
2022-11-27T08:49:01.565Z,50.23
2022-11-27T08:50:03.684Z,47.37
2022-11-27T08:51:08.297Z,50.10
2022-11-27T08:52:11.231Z,50.11
2022-11-27T08:53:14.035Z,50.10
2022-11-27T08:54:16.176Z,49.12
2022-11-27T08:55:18.173Z,49.10
2022-11-27T08:56:23.546Z,50.87
2022-11-27T08:57:25.953Z,49.57
2022-11-27T08:58:27.684Z,50.68
2022-11-27T08:59:29.447Z,48.19
2022-11-27T09:00:32.201Z,46.07
2022-11-27T09:01:33.972Z,48.64
2022-11-27T09:02:35.951Z,46.37
2022-11-27T09:03:38.293Z,45.72
2022-11-27T09:04:40.371Z,46.33
2022-11-27T09:05:44.723Z,46.23
2022-11-27T09:06:48.985Z,46.33
2022-11-27T09:07:51.386Z,48.45
2022-11-27T09:08:53.208Z,48.15
2022-11-27T09:09:54.969Z,45.91
2022-11-27T09:11:01.632Z,44.82
2022-11-27T09:12:03.821Z,45.87
2022-11-27T09:13:05.570Z,44.65
2022-11-27T09:14:08.713Z,46.34
2022-11-27T09:15:13.781Z,46.41
2022-11-27T09:16:19.173Z,51.59
2022-11-27T09:17:20.956Z,48.31
2022-11-27T09:18:23.464Z,45.27
2022-11-27T09:19:26.034Z,44.54
2022-11-27T09:20:27.834Z,47.84
2022-11-27T09:21:30.677Z,48.15
2022-11-27T09:22:34.449Z,46.61
2022-11-27T09:23:37.704Z,45.36
2022-11-27T09:24:39.852Z,46.83
2022-11-27T09:25:41.977Z,51.21
2022-11-27T09:26:44.849Z,52.28
2022-11-27T09:27:46.615Z,52.66
2022-11-27T09:28:48.503Z,46.11
2022-11-27T09:29:50.256Z,43.35
2022-11-27T09:30:56.846Z,41.74
2022-11-27T09:31:58.681Z,40.35
2022-11-27T09:33:02.123Z,40.48
2022-11-27T09:34:04.862Z,41.64
2022-11-27T09:35:06.944Z,42.06
2022-11-27T09:36:11.694Z,40.45
2022-11-27T09:37:13.458Z,43.21
2022-11-27T09:38:15.223Z,46.34
2022-11-27T09:39:19.410Z,42.46
2022-11-27T09:40:21.383Z,40.59
2022-11-27T09:41:50.291Z,39.92
2022-11-27T09:43:04.293Z,43.38
2022-11-27T09:44:22.358Z,41.15
2022-11-27T09:45:27.114Z,40.96
2022-11-27T09:46:38.995Z,41.17
2022-11-27T09:47:48.089Z,41.07
2022-11-27T09:48:52.635Z,43.43
2022-11-27T09:50:03.335Z,42.64
2022-11-27T09:51:15.648Z,40.77
2022-11-27T09:52:42.692Z,38.78
2022-11-27T09:53:56.257Z,41.17
2022-11-27T09:55:13.292Z,40.18
2022-11-27T09:56:18.867Z,40.42
2022-11-27T09:57:29.392Z,40.12
2022-11-27T09:58:39.233Z,41.64
2022-11-27T09:59:50.651Z,40.31
2022-11-27T10:00:52.470Z,40.74
2022-11-27T10:01:54.374Z,41.55
2022-11-27T10:02:56.971Z,40.26
2022-11-27T10:04:02.164Z,42.24
2022-11-27T10:05:34.015Z,42.93
2022-11-27T10:07:09.829Z,43.12
2022-11-27T10:08:47.641Z,41.40
2022-11-27T10:10:01.258Z,42.32
2022-11-27T10:11:44.494Z,41.11
2022-11-27T10:13:05.845Z,42.19
2022-11-27T10:14:32.594Z,46.16
2022-11-27T10:15:52.937Z,42.83
2022-11-27T10:17:08.791Z,42.52
2022-11-27T10:18:16.213Z,46.06
2022-11-27T10:19:36.463Z,49.04
2022-11-27T10:20:46.797Z,48.05
2022-11-27T10:21:59.983Z,46.35
2022-11-27T10:23:23.108Z,42.34
2022-11-27T10:24:36.699Z,41.20
2022-11-27T10:25:49.444Z,41.93
2022-11-27T10:26:58.333Z,44.10
2022-11-27T10:28:06.220Z,42.85
2022-11-27T10:29:31.993Z,44.15
2022-11-27T10:30:52.765Z,46.06
2022-11-27T10:32:04.314Z,45.17
2022-11-27T10:33:20.230Z,48.66
2022-11-27T10:34:40.625Z,43.38
2022-11-27T10:35:47.916Z,40.16
2022-11-27T10:36:54.291Z,40.44
2022-11-27T10:38:22.407Z,38.99
2022-11-27T10:39:59.283Z,40.08
2022-11-27T10:41:07.789Z,36.53
2022-11-27T10:42:26.213Z,37.60
2022-11-27T10:43:27.965Z,38.59
2022-11-27T10:44:50.855Z,39.81
2022-11-27T10:46:18.781Z,39.71
2022-11-27T10:47:28.535Z,38.22
2022-11-27T10:48:33.353Z,37.66
2022-11-27T10:49:40.304Z,38.98
2022-11-27T10:50:42.757Z,38.40
2022-11-27T10:51:44.515Z,37.10
2022-11-27T10:53:06.240Z,36.66
2022-11-27T10:54:23.145Z,36.85
2022-11-27T10:55:44.488Z,41.95
2022-11-27T10:57:22.604Z,41.26
2022-11-27T10:58:46.549Z,41.13
2022-11-27T11:00:19.850Z,37.63
2022-11-27T11:01:24.594Z,40.07
2022-11-27T11:02:32.709Z,39.60
2022-11-27T11:03:35.515Z,39.83
2022-11-27T11:04:38.647Z,39.59
2022-11-27T11:06:04.787Z,40.54
2022-11-27T11:07:02.727Z,35.75
2022-11-27T11:08:15.806Z,38.95
2022-11-27T11:09:32.877Z,40.72
2022-11-27T11:10:38.727Z,39.01
2022-11-27T11:11:41.043Z,35.75
2022-11-27T11:12:42.850Z,35.21
2022-11-27T11:13:46.999Z,35.00
2022-11-27T11:14:57.633Z,35.07
2022-11-27T11:16:18.445Z,36.40
2022-11-27T11:17:26.913Z,36.53
2022-11-27T11:18:35.605Z,40.84
2022-11-27T11:19:39.016Z,39.46
2022-11-27T11:20:47.239Z,86.64
2022-11-27T11:21:49.085Z,47.84
2022-11-27T11:22:51.767Z,45.23
2022-11-27T11:24:00.357Z,42.18
2022-11-27T11:25:02.432Z,38.15
2022-11-27T11:26:15.605Z,38.98
2022-11-27T11:27:30.594Z,41.48
2022-11-27T11:28:40.953Z,45.17
2022-11-27T11:30:17.041Z,38.57
2022-11-27T11:31:23.556Z,36.09
2022-11-27T11:32:28.031Z,33.68
2022-11-27T11:33:30.686Z,36.14
2022-11-27T11:34:33.886Z,39.57
2022-11-27T11:35:37.050Z,44.56
2022-11-27T11:36:38.999Z,40.20
2022-11-27T11:37:46.191Z,38.93
2022-11-27T11:38:49.571Z,40.29
2022-11-27T11:40:20.311Z,48.61
2022-11-27T11:41:23.825Z,47.46
2022-11-27T11:42:29.654Z,44.75
2022-11-27T11:43:37.448Z,46.49
2022-11-27T11:44:40.668Z,44.99
2022-11-27T11:45:48.904Z,35.43
2022-11-27T11:46:53.394Z,36.02
2022-11-27T11:47:58.400Z,36.10
2022-11-27T11:49:01.934Z,36.31
2022-11-27T11:50:03.970Z,38.71
2022-11-27T11:51:27.851Z,40.03
2022-11-27T11:52:59.389Z,37.12
2022-11-27T11:54:18.448Z,34.29
2022-11-27T11:55:31.040Z,38.76
2022-11-27T11:56:44.844Z,40.45
2022-11-27T11:58:03.864Z,39.84
2022-11-27T11:59:34.034Z,46.15
2022-11-27T12:01:04.803Z,39.48
2022-11-27T12:02:23.742Z,36.90
2022-11-27T12:04:02.704Z,45.87
2022-11-27T12:05:43.236Z,38.49
2022-11-27T12:07:01.534Z,35.57
2022-11-27T12:08:30.620Z,33.03
2022-11-27T12:09:48.870Z,37.29
2022-11-27T12:11:15.339Z,36.40
2022-11-27T12:12:35.553Z,31.60
2022-11-27T12:14:03.874Z,34.06
2022-11-27T12:15:11.462Z,34.04
2022-11-27T12:16:39.930Z,30.75
2022-11-27T12:18:06.560Z,36.28
2022-11-27T12:19:49.647Z,37.85
2022-11-27T12:20:54.133Z,33.25
2022-11-27T12:22:20.385Z,39.29
2022-11-27T12:23:40.607Z,36.15
2022-11-27T12:24:54.319Z,34.48
2022-11-27T12:26:11.617Z,36.10
2022-11-27T12:27:49.990Z,37.30
2022-11-27T12:29:46.039Z,39.55
2022-11-27T12:31:05.681Z,31.21
2022-11-27T12:32:36.989Z,31.66
2022-11-27T12:33:50.444Z,32.00
2022-11-27T12:35:10.810Z,35.93
2022-11-27T12:36:50.371Z,35.43
2022-11-27T12:38:10.206Z,36.35
2022-11-27T12:39:30.626Z,35.26
2022-11-27T12:40:50.114Z,32.43
2022-11-27T12:42:21.964Z,31.49
2022-11-27T12:43:27.516Z,33.43
2022-11-27T12:44:47.430Z,33.57
2022-11-27T12:46:12.663Z,31.97
2022-11-27T12:47:29.326Z,31.70
2022-11-27T12:48:39.175Z,32.51
2022-11-27T12:49:46.237Z,31.33
2022-11-27T12:50:56.653Z,31.53
2022-11-27T12:52:21.313Z,36.19
2022-11-27T12:53:41.741Z,31.78
2022-11-27T12:54:56.214Z,32.10
2022-11-27T12:56:10.658Z,30.38
2022-11-27T12:57:20.680Z,30.45
2022-11-27T12:58:31.252Z,31.73
2022-11-27T12:59:46.353Z,31.38
2022-11-27T13:00:50.380Z,30.76
2022-11-27T13:02:28.924Z,30.74
2022-11-27T13:03:42.222Z,29.94
2022-11-27T13:04:51.788Z,29.55
2022-11-27T13:06:06.334Z,31.20
2022-11-27T13:07:24.670Z,35.61
2022-11-27T13:08:36.749Z,36.72
2022-11-27T13:10:09.448Z,35.13
2022-11-27T13:11:15.282Z,29.75
2022-11-27T13:12:30.718Z,30.29
2022-11-27T13:13:39.648Z,30.31
2022-11-27T13:14:46.445Z,33.74
2022-11-27T13:16:00.997Z,33.51
2022-11-27T13:17:11.667Z,28.61
2022-11-27T13:18:50.574Z,29.37
2022-11-27T13:19:53.383Z,29.04
2022-11-27T13:21:01.602Z,28.99
2022-11-27T13:22:09.211Z,30.27
2022-11-27T13:23:11.875Z,31.17
2022-11-27T13:24:14.853Z,29.92
2022-11-27T13:25:17.339Z,30.71
2022-11-27T13:26:31.689Z,29.25
2022-11-27T13:27:37.611Z,29.58
2022-11-27T13:28:50.183Z,32.09
2022-11-27T13:29:58.249Z,39.12
2022-11-27T13:31:02.082Z,41.45
2022-11-27T13:32:07.863Z,35.98
2022-11-27T13:33:34.143Z,34.32
2022-11-27T13:34:46.900Z,33.46
2022-11-27T13:35:49.908Z,32.48
2022-11-27T13:36:59.177Z,33.36
2022-11-27T13:38:24.274Z,33.46
2022-11-27T13:39:31.778Z,34.89
2022-11-27T13:40:42.024Z,36.41
2022-11-27T13:41:43.929Z,34.96
2022-11-27T13:42:51.002Z,36.89
2022-11-27T13:43:53.014Z,37.99
2022-11-27T13:45:03.184Z,36.54
2022-11-27T13:46:11.959Z,35.14
2022-11-27T13:47:18.899Z,34.37
2022-11-27T13:48:32.893Z,34.70
2022-11-27T13:49:38.026Z,37.40
2022-11-27T13:50:45.842Z,37.17
2022-11-27T13:51:47.785Z,36.69
2022-11-27T13:53:07.366Z,36.65
2022-11-27T13:54:25.922Z,37.01
2022-11-27T13:55:37.886Z,33.97
2022-11-27T13:56:40.598Z,36.85
2022-11-27T13:57:52.844Z,36.68
2022-11-27T13:58:54.703Z,42.63
2022-11-27T14:00:13.797Z,44.38
2022-11-27T14:01:22.475Z,45.01
2022-11-27T14:02:25.704Z,45.04
2022-11-27T14:03:30.409Z,44.36
2022-11-27T14:04:34.041Z,46.36
2022-11-27T14:05:44.355Z,45.82
2022-11-27T14:06:56.013Z,42.42
2022-11-27T14:07:59.986Z,41.43
2022-11-27T14:09:05.562Z,40.56
2022-11-27T14:10:15.820Z,45.44
2022-11-27T14:11:34.567Z,52.44
2022-11-27T14:12:36.964Z,52.73
2022-11-27T14:13:52.213Z,55.32
2022-11-27T14:15:20.143Z,56.91
2022-11-27T14:16:35.626Z,57.52
2022-11-27T14:17:49.956Z,56.73
2022-11-27T14:18:59.699Z,55.93
2022-11-27T14:20:20.601Z,54.58
2022-11-27T14:21:44.095Z,53.54
2022-11-27T14:23:11.904Z,51.87
2022-11-27T14:24:25.378Z,49.92
2022-11-27T14:25:36.566Z,46.65
2022-11-27T14:26:41.721Z,46.02
2022-11-27T14:27:43.613Z,47.47
2022-11-27T14:28:50.712Z,46.33
2022-11-27T14:29:52.896Z,47.39